sensor_id;sensor_type;location;lat;lon;timestamp;temperature;humidity
51908;DHT22;39320;53.214;6.556;2022-10-22T00:00:10;14.50;99.90
51908;DHT22;39320;53.214;6.556;2022-10-22T00:02:36;14.50;99.90
51908;DHT22;39320;53.214;6.556;2022-10-22T00:05:02;14.50;99.90
51908;DHT22;39320;53.214;6.556;2022-10-22T00:07:29;14.50;99.90
51908;DHT22;39320;53.214;6.556;2022-10-22T00:09:54;14.50;99.90
51908;DHT22;39320;53.214;6.556;2022-10-22T00:12:20;14.40;99.90
51908;DHT22;39320;53.214;6.556;2022-10-22T00:14:46;14.40;99.90
51908;DHT22;39320;53.214;6.556;2022-10-22T00:17:12;14.40;99.90
51908;DHT22;39320;53.214;6.556;2022-10-22T00:19:39;14.40;99.90
51908;DHT22;39320;53.214;6.556;2022-10-22T00:22:05;14.40;99.90
51908;DHT22;39320;53.214;6.556;2022-10-22T00:24:33;14.40;99.90
51908;DHT22;39320;53.214;6.556;2022-10-22T00:26:59;14.40;99.90
51908;DHT22;39320;53.214;6.556;2022-10-22T00:29:25;14.40;99.90
51908;DHT22;39320;53.214;6.556;2022-10-22T00:31:51;14.40;99.90
51908;DHT22;39320;53.214;6.556;2022-10-22T00:34:17;14.40;99.90
51908;DHT22;39320;53.214;6.556;2022-10-22T00:36:44;14.30;99.90
51908;DHT22;39320;53.214;6.556;2022-10-22T00:39:11;14.30;99.90
51908;DHT22;39320;53.214;6.556;2022-10-22T00:41:38;14.30;99.90
51908;DHT22;39320;53.214;6.556;2022-10-22T00:44:05;14.30;99.90
51908;DHT22;39320;53.214;6.556;2022-10-22T00:46:31;14.30;99.90
51908;DHT22;39320;53.214;6.556;2022-10-22T00:48:59;14.30;99.90
51908;DHT22;39320;53.214;6.556;2022-10-22T00:51:29;14.30;99.90
51908;DHT22;39320;53.214;6.556;2022-10-22T00:54:02;14.30;99.90
51908;DHT22;39320;53.214;6.556;2022-10-22T00:56:29;14.30;99.90
51908;DHT22;39320;53.214;6.556;2022-10-22T00:58:57;14.30;99.90
51908;DHT22;39320;53.214;6.556;2022-10-22T01:01:29;14.30;99.90
51908;DHT22;39320;53.214;6.556;2022-10-22T01:03:56;14.30;99.90
51908;DHT22;39320;53.214;6.556;2022-10-22T01:06:28;14.40;99.90
51908;DHT22;39320;53.214;6.556;2022-10-22T01:11:52;14.30;99.90
51908;DHT22;39320;53.214;6.556;2022-10-22T01:14:46;14.30;99.90
51908;DHT22;39320;53.214;6.556;2022-10-22T01:17:18;14.30;99.90
51908;DHT22;39320;53.214;6.556;2022-10-22T01:22:39;14.30;99.90
51908;DHT22;39320;53.214;6.556;2022-10-22T01:25:31;14.30;99.90
51908;DHT22;39320;53.214;6.556;2022-10-22T01:28:22;14.30;99.90
51908;DHT22;39320;53.214;6.556;2022-10-22T01:30:53;14.30;99.90
51908;DHT22;39320;53.214;6.556;2022-10-22T01:33:22;14.30;99.90
51908;DHT22;39320;53.214;6.556;2022-10-22T01:35:49;14.30;99.90
51908;DHT22;39320;53.214;6.556;2022-10-22T01:38:19;14.30;99.90
51908;DHT22;39320;53.214;6.556;2022-10-22T01:40:46;14.30;99.90
51908;DHT22;39320;53.214;6.556;2022-10-22T01:43:13;14.30;99.90
51908;DHT22;39320;53.214;6.556;2022-10-22T01:45:40;14.30;99.90
51908;DHT22;39320;53.214;6.556;2022-10-22T01:54:19;14.30;99.90
51908;DHT22;39320;53.214;6.556;2022-10-22T02:05:40;14.30;99.90
51908;DHT22;39320;53.214;6.556;2022-10-22T02:08:02;14.30;99.90
51908;DHT22;39320;53.214;6.556;2022-10-22T02:10:30;14.20;99.90
51908;DHT22;39320;53.214;6.556;2022-10-22T02:12:57;14.20;99.90
51908;DHT22;39320;53.214;6.556;2022-10-22T02:15:26;14.20;99.90
51908;DHT22;39320;53.214;6.556;2022-10-22T02:17:55;14.20;99.90
51908;DHT22;39320;53.214;6.556;2022-10-22T02:20:26;14.30;99.90
51908;DHT22;39320;53.214;6.556;2022-10-22T02:22:53;14.20;99.90
51908;DHT22;39320;53.214;6.556;2022-10-22T02:25:21;14.20;99.90
51908;DHT22;39320;53.214;6.556;2022-10-22T02:30:53;14.30;99.90
51908;DHT22;39320;53.214;6.556;2022-10-22T02:33:25;14.20;99.90
51908;DHT22;39320;53.214;6.556;2022-10-22T02:35:52;14.30;99.90
51908;DHT22;39320;53.214;6.556;2022-10-22T02:38:20;14.20;99.90
51908;DHT22;39320;53.214;6.556;2022-10-22T02:40:47;14.20;99.90
51908;DHT22;39320;53.214;6.556;2022-10-22T02:43:13;14.20;99.90
51908;DHT22;39320;53.214;6.556;2022-10-22T02:45:38;14.20;99.90
51908;DHT22;39320;53.214;6.556;2022-10-22T02:48:05;14.20;99.90
51908;DHT22;39320;53.214;6.556;2022-10-22T02:50:32;14.20;99.90
51908;DHT22;39320;53.214;6.556;2022-10-22T02:52:58;14.20;99.90
51908;DHT22;39320;53.214;6.556;2022-10-22T02:55:24;14.30;99.90
51908;DHT22;39320;53.214;6.556;2022-10-22T02:57:49;14.20;99.90
51908;DHT22;39320;53.214;6.556;2022-10-22T03:00:15;14.20;99.90
51908;DHT22;39320;53.214;6.556;2022-10-22T03:02:41;14.20;99.90
51908;DHT22;39320;53.214;6.556;2022-10-22T03:05:07;14.20;99.90
51908;DHT22;39320;53.214;6.556;2022-10-22T03:07:33;14.20;99.90
51908;DHT22;39320;53.214;6.556;2022-10-22T03:09:59;14.20;99.90
51908;DHT22;39320;53.214;6.556;2022-10-22T03:12:24;14.20;99.90
51908;DHT22;39320;53.214;6.556;2022-10-22T03:14:50;14.20;99.90
51908;DHT22;39320;53.214;6.556;2022-10-22T03:17:16;14.20;99.90
51908;DHT22;39320;53.214;6.556;2022-10-22T03:19:42;14.20;99.90
51908;DHT22;39320;53.214;6.556;2022-10-22T03:22:24;14.20;99.90
51908;DHT22;39320;53.214;6.556;2022-10-22T03:24:53;14.20;99.90
51908;DHT22;39320;53.214;6.556;2022-10-22T03:27:21;14.20;99.90
51908;DHT22;39320;53.214;6.556;2022-10-22T03:29:49;14.20;99.90
51908;DHT22;39320;53.214;6.556;2022-10-22T03:32:16;14.20;99.90
51908;DHT22;39320;53.214;6.556;2022-10-22T03:34:41;14.20;99.90
51908;DHT22;39320;53.214;6.556;2022-10-22T03:37:07;14.20;99.90
51908;DHT22;39320;53.214;6.556;2022-10-22T03:39:34;14.20;99.90
51908;DHT22;39320;53.214;6.556;2022-10-22T03:42:00;14.20;99.90
51908;DHT22;39320;53.214;6.556;2022-10-22T03:44:27;14.20;99.90
51908;DHT22;39320;53.214;6.556;2022-10-22T03:46:54;14.20;99.90
51908;DHT22;39320;53.214;6.556;2022-10-22T03:49:19;14.20;99.90
51908;DHT22;39320;53.214;6.556;2022-10-22T03:51:45;14.10;99.90
51908;DHT22;39320;53.214;6.556;2022-10-22T03:54:11;14.10;99.90
51908;DHT22;39320;53.214;6.556;2022-10-22T03:56:37;14.10;99.90
51908;DHT22;39320;53.214;6.556;2022-10-22T03:59:03;14.10;99.90
51908;DHT22;39320;53.214;6.556;2022-10-22T04:01:29;14.10;99.90
51908;DHT22;39320;53.214;6.556;2022-10-22T04:03:55;14.10;99.90
51908;DHT22;39320;53.214;6.556;2022-10-22T04:06:22;14.10;99.90
51908;DHT22;39320;53.214;6.556;2022-10-22T04:08:48;14.10;99.90
51908;DHT22;39320;53.214;6.556;2022-10-22T04:11:14;14.00;99.90
51908;DHT22;39320;53.214;6.556;2022-10-22T04:13:41;14.00;99.90
51908;DHT22;39320;53.214;6.556;2022-10-22T04:16:11;14.00;99.90
51908;DHT22;39320;53.214;6.556;2022-10-22T04:18:38;14.00;99.90
51908;DHT22;39320;53.214;6.556;2022-10-22T04:21:05;14.00;99.90
51908;DHT22;39320;53.214;6.556;2022-10-22T04:23:31;14.00;99.90
51908;DHT22;39320;53.214;6.556;2022-10-22T04:25:58;14.00;99.90
51908;DHT22;39320;53.214;6.556;2022-10-22T04:28:24;14.00;99.90
51908;DHT22;39320;53.214;6.556;2022-10-22T04:30:50;14.00;99.90
51908;DHT22;39320;53.214;6.556;2022-10-22T04:33:15;14.00;99.90
51908;DHT22;39320;53.214;6.556;2022-10-22T04:35:41;14.00;99.90
51908;DHT22;39320;53.214;6.556;2022-10-22T04:38:07;14.00;99.90
51908;DHT22;39320;53.214;6.556;2022-10-22T04:40:32;14.00;99.90
51908;DHT22;39320;53.214;6.556;2022-10-22T04:42:58;14.00;99.90
51908;DHT22;39320;53.214;6.556;2022-10-22T04:45:24;14.00;99.90
51908;DHT22;39320;53.214;6.556;2022-10-22T04:47:49;14.00;99.90
51908;DHT22;39320;53.214;6.556;2022-10-22T04:50:15;14.00;99.90
51908;DHT22;39320;53.214;6.556;2022-10-22T04:52:41;14.00;99.90
51908;DHT22;39320;53.214;6.556;2022-10-22T04:55:07;13.90;99.90
51908;DHT22;39320;53.214;6.556;2022-10-22T04:57:33;13.90;99.90
51908;DHT22;39320;53.214;6.556;2022-10-22T04:59:59;13.90;99.90
51908;DHT22;39320;53.214;6.556;2022-10-22T05:02:25;13.90;99.90
51908;DHT22;39320;53.214;6.556;2022-10-22T05:04:50;13.90;99.90
51908;DHT22;39320;53.214;6.556;2022-10-22T05:07:16;13.90;99.90
51908;DHT22;39320;53.214;6.556;2022-10-22T05:09:42;14.00;99.90
51908;DHT22;39320;53.214;6.556;2022-10-22T05:12:08;13.90;99.90
51908;DHT22;39320;53.214;6.556;2022-10-22T05:14:33;13.90;99.90
51908;DHT22;39320;53.214;6.556;2022-10-22T05:16:59;13.90;99.90
51908;DHT22;39320;53.214;6.556;2022-10-22T05:19:27;13.90;99.90
51908;DHT22;39320;53.214;6.556;2022-10-22T05:21:56;13.90;99.90
51908;DHT22;39320;53.214;6.556;2022-10-22T05:24:23;13.90;99.90
51908;DHT22;39320;53.214;6.556;2022-10-22T05:26:50;13.90;99.90
51908;DHT22;39320;53.214;6.556;2022-10-22T05:29:16;14.00;99.90
51908;DHT22;39320;53.214;6.556;2022-10-22T05:31:41;13.90;99.90
51908;DHT22;39320;53.214;6.556;2022-10-22T05:34:07;13.90;99.90
51908;DHT22;39320;53.214;6.556;2022-10-22T05:36:33;14.00;99.90
51908;DHT22;39320;53.214;6.556;2022-10-22T05:38:59;13.90;99.90
51908;DHT22;39320;53.214;6.556;2022-10-22T05:41:26;13.90;99.90
51908;DHT22;39320;53.214;6.556;2022-10-22T05:43:54;13.90;99.90
51908;DHT22;39320;53.214;6.556;2022-10-22T05:46:22;13.90;99.90
51908;DHT22;39320;53.214;6.556;2022-10-22T05:48:57;14.00;99.90
51908;DHT22;39320;53.214;6.556;2022-10-22T05:51:26;13.90;99.90
51908;DHT22;39320;53.214;6.556;2022-10-22T05:53:57;14.00;99.90
51908;DHT22;39320;53.214;6.556;2022-10-22T05:56:25;13.90;99.90
51908;DHT22;39320;53.214;6.556;2022-10-22T05:58:51;13.90;99.90
51908;DHT22;39320;53.214;6.556;2022-10-22T06:01:23;13.90;99.90
51908;DHT22;39320;53.214;6.556;2022-10-22T06:03:52;13.90;99.90
51908;DHT22;39320;53.214;6.556;2022-10-22T06:09:06;13.90;99.90
51908;DHT22;39320;53.214;6.556;2022-10-22T06:11:35;13.90;99.90
51908;DHT22;39320;53.214;6.556;2022-10-22T06:14:02;13.90;99.90
51908;DHT22;39320;53.214;6.556;2022-10-22T06:16:29;13.90;99.90
51908;DHT22;39320;53.214;6.556;2022-10-22T06:18:57;13.90;99.90
51908;DHT22;39320;53.214;6.556;2022-10-22T06:21:22;13.90;99.90
51908;DHT22;39320;53.214;6.556;2022-10-22T06:23:48;13.90;99.90
51908;DHT22;39320;53.214;6.556;2022-10-22T06:26:14;13.90;99.90
51908;DHT22;39320;53.214;6.556;2022-10-22T06:28:42;14.00;99.90
51908;DHT22;39320;53.214;6.556;2022-10-22T06:31:09;14.00;99.90
51908;DHT22;39320;53.214;6.556;2022-10-22T06:33:35;13.90;99.90
51908;DHT22;39320;53.214;6.556;2022-10-22T06:36:19;13.90;99.90
51908;DHT22;39320;53.214;6.556;2022-10-22T06:38:45;14.00;99.90
51908;DHT22;39320;53.214;6.556;2022-10-22T06:41:14;13.90;99.90
51908;DHT22;39320;53.214;6.556;2022-10-22T06:43:41;14.00;99.90
51908;DHT22;39320;53.214;6.556;2022-10-22T06:46:09;13.90;99.90
51908;DHT22;39320;53.214;6.556;2022-10-22T06:48:37;14.00;99.90
51908;DHT22;39320;53.214;6.556;2022-10-22T06:51:08;14.00;99.90
51908;DHT22;39320;53.214;6.556;2022-10-22T06:53:35;13.90;99.90
51908;DHT22;39320;53.214;6.556;2022-10-22T06:56:12;14.00;99.90
51908;DHT22;39320;53.214;6.556;2022-10-22T06:58:38;14.00;99.90
51908;DHT22;39320;53.214;6.556;2022-10-22T07:01:09;14.00;99.90
51908;DHT22;39320;53.214;6.556;2022-10-22T07:03:36;14.00;99.90
51908;DHT22;39320;53.214;6.556;2022-10-22T07:06:04;14.00;99.90
51908;DHT22;39320;53.214;6.556;2022-10-22T07:08:30;14.00;99.90
51908;DHT22;39320;53.214;6.556;2022-10-22T07:11:04;14.00;99.90
51908;DHT22;39320;53.214;6.556;2022-10-22T07:13:30;14.00;99.90
51908;DHT22;39320;53.214;6.556;2022-10-22T07:15:56;14.00;99.90
51908;DHT22;39320;53.214;6.556;2022-10-22T07:18:21;14.00;99.90
51908;DHT22;39320;53.214;6.556;2022-10-22T07:20:48;14.00;99.90
51908;DHT22;39320;53.214;6.556;2022-10-22T07:23:14;14.00;99.90
51908;DHT22;39320;53.214;6.556;2022-10-22T07:25:40;14.00;99.90
51908;DHT22;39320;53.214;6.556;2022-10-22T07:28:06;14.00;99.90
51908;DHT22;39320;53.214;6.556;2022-10-22T07:30:33;14.00;99.90
51908;DHT22;39320;53.214;6.556;2022-10-22T07:32:59;14.10;99.90
51908;DHT22;39320;53.214;6.556;2022-10-22T07:35:25;14.10;99.90
51908;DHT22;39320;53.214;6.556;2022-10-22T07:37:50;14.10;99.90
51908;DHT22;39320;53.214;6.556;2022-10-22T07:40:16;14.10;99.90
51908;DHT22;39320;53.214;6.556;2022-10-22T07:42:42;14.10;99.90
51908;DHT22;39320;53.214;6.556;2022-10-22T07:45:08;14.10;99.90
51908;DHT22;39320;53.214;6.556;2022-10-22T07:47:34;14.10;99.90
51908;DHT22;39320;53.214;6.556;2022-10-22T07:49:59;14.10;99.90
51908;DHT22;39320;53.214;6.556;2022-10-22T07:52:26;14.10;99.90
51908;DHT22;39320;53.214;6.556;2022-10-22T07:54:52;14.20;99.90
51908;DHT22;39320;53.214;6.556;2022-10-22T07:57:18;14.10;99.90
51908;DHT22;39320;53.214;6.556;2022-10-22T07:59:43;14.10;99.90
51908;DHT22;39320;53.214;6.556;2022-10-22T08:02:10;14.10;99.90
51908;DHT22;39320;53.214;6.556;2022-10-22T08:04:37;14.20;99.90
51908;DHT22;39320;53.214;6.556;2022-10-22T08:07:02;14.20;99.90
51908;DHT22;39320;53.214;6.556;2022-10-22T08:09:28;14.20;99.90
51908;DHT22;39320;53.214;6.556;2022-10-22T08:11:54;14.20;99.90
51908;DHT22;39320;53.214;6.556;2022-10-22T08:14:20;14.20;99.90
51908;DHT22;39320;53.214;6.556;2022-10-22T08:16:45;14.20;99.90
51908;DHT22;39320;53.214;6.556;2022-10-22T08:19:11;14.20;99.90
51908;DHT22;39320;53.214;6.556;2022-10-22T08:21:38;14.20;99.90
51908;DHT22;39320;53.214;6.556;2022-10-22T08:24:05;14.20;99.90
51908;DHT22;39320;53.214;6.556;2022-10-22T08:26:31;14.20;99.90
51908;DHT22;39320;53.214;6.556;2022-10-22T08:28:57;14.30;99.90
51908;DHT22;39320;53.214;6.556;2022-10-22T08:31:23;14.30;99.90
51908;DHT22;39320;53.214;6.556;2022-10-22T08:33:48;14.20;99.90
51908;DHT22;39320;53.214;6.556;2022-10-22T08:36:14;14.30;99.90
51908;DHT22;39320;53.214;6.556;2022-10-22T08:38:40;14.30;99.90
51908;DHT22;39320;53.214;6.556;2022-10-22T08:41:10;14.20;99.90
51908;DHT22;39320;53.214;6.556;2022-10-22T08:49:00;14.40;99.90
51908;DHT22;39320;53.214;6.556;2022-10-22T08:51:31;14.40;99.90
51908;DHT22;39320;53.214;6.556;2022-10-22T08:57:13;14.50;99.90
51908;DHT22;39320;53.214;6.556;2022-10-22T08:59:45;14.50;99.90
51908;DHT22;39320;53.214;6.556;2022-10-22T09:07:54;14.70;99.90
51908;DHT22;39320;53.214;6.556;2022-10-22T09:10:24;14.70;99.90
51908;DHT22;39320;53.214;6.556;2022-10-22T09:12:51;14.70;99.90
51908;DHT22;39320;53.214;6.556;2022-10-22T09:15:18;14.80;99.90
51908;DHT22;39320;53.214;6.556;2022-10-22T09:18:05;14.80;99.90
51908;DHT22;39320;53.214;6.556;2022-10-22T09:20:47;14.90;99.90
51908;DHT22;39320;53.214;6.556;2022-10-22T09:23:36;14.90;99.90
51908;DHT22;39320;53.214;6.556;2022-10-22T09:26:13;14.90;99.90
51908;DHT22;39320;53.214;6.556;2022-10-22T09:28:39;15.00;99.90
51908;DHT22;39320;53.214;6.556;2022-10-22T09:31:13;15.00;99.90
51908;DHT22;39320;53.214;6.556;2022-10-22T09:33:40;15.00;99.90
51908;DHT22;39320;53.214;6.556;2022-10-22T09:36:06;15.10;99.90
51908;DHT22;39320;53.214;6.556;2022-10-22T09:38:38;15.10;99.90
51908;DHT22;39320;53.214;6.556;2022-10-22T09:41:04;15.20;99.90
51908;DHT22;39320;53.214;6.556;2022-10-22T09:43:31;15.20;99.90
51908;DHT22;39320;53.214;6.556;2022-10-22T09:46:00;15.20;99.90
51908;DHT22;39320;53.214;6.556;2022-10-22T09:48:33;15.20;99.90
51908;DHT22;39320;53.214;6.556;2022-10-22T09:51:21;15.20;99.90
51908;DHT22;39320;53.214;6.556;2022-10-22T09:54:00;15.20;99.90
51908;DHT22;39320;53.214;6.556;2022-10-22T09:56:27;15.20;99.90
51908;DHT22;39320;53.214;6.556;2022-10-22T09:58:55;15.30;99.90
51908;DHT22;39320;53.214;6.556;2022-10-22T10:01:25;15.30;99.90
51908;DHT22;39320;53.214;6.556;2022-10-22T10:03:51;15.30;99.90
51908;DHT22;39320;53.214;6.556;2022-10-22T10:06:18;15.30;99.90
51908;DHT22;39320;53.214;6.556;2022-10-22T10:08:44;15.30;99.90
51908;DHT22;39320;53.214;6.556;2022-10-22T10:11:28;15.30;99.90
51908;DHT22;39320;53.214;6.556;2022-10-22T10:16:42;15.30;99.90
51908;DHT22;39320;53.214;6.556;2022-10-22T10:19:55;15.30;99.90
51908;DHT22;39320;53.214;6.556;2022-10-22T10:31:03;15.30;99.90
51908;DHT22;39320;53.214;6.556;2022-10-22T10:39:14;15.30;99.90
51908;DHT22;39320;53.214;6.556;2022-10-22T10:50:28;15.30;99.90
51908;DHT22;39320;53.214;6.556;2022-10-22T10:55:37;15.40;99.90
51908;DHT22;39320;53.214;6.556;2022-10-22T10:58:52;15.40;99.90
51908;DHT22;39320;53.214;6.556;2022-10-22T11:01:47;15.40;99.90
51908;DHT22;39320;53.214;6.556;2022-10-22T11:07:10;15.40;99.90
51908;DHT22;39320;53.214;6.556;2022-10-22T11:09:47;15.40;99.90
51908;DHT22;39320;53.214;6.556;2022-10-22T11:12:23;15.40;99.90
51908;DHT22;39320;53.214;6.556;2022-10-22T11:17:44;15.40;99.90
51908;DHT22;39320;53.214;6.556;2022-10-22T11:20:21;15.40;99.90
51908;DHT22;39320;53.214;6.556;2022-10-22T11:23:16;15.30;99.90
51908;DHT22;39320;53.214;6.556;2022-10-22T11:25:48;15.30;99.90
51908;DHT22;39320;53.214;6.556;2022-10-22T11:28:52;15.20;99.90
51908;DHT22;39320;53.214;6.556;2022-10-22T11:31:15;15.30;99.90
51908;DHT22;39320;53.214;6.556;2022-10-22T11:34:06;15.30;99.90
51908;DHT22;39320;53.214;6.556;2022-10-22T11:36:35;15.30;99.90
51908;DHT22;39320;53.214;6.556;2022-10-22T11:39:03;15.40;99.90
51908;DHT22;39320;53.214;6.556;2022-10-22T11:41:32;15.50;99.90
51908;DHT22;39320;53.214;6.556;2022-10-22T11:47:24;15.50;99.90
51908;DHT22;39320;53.214;6.556;2022-10-22T11:53:32;15.60;99.90
51908;DHT22;39320;53.214;6.556;2022-10-22T11:58:44;15.50;99.90
51908;DHT22;39320;53.214;6.556;2022-10-22T12:03:41;15.40;99.90
51908;DHT22;39320;53.214;6.556;2022-10-22T12:11:36;15.40;99.90
51908;DHT22;39320;53.214;6.556;2022-10-22T12:14:37;15.40;99.90
51908;DHT22;39320;53.214;6.556;2022-10-22T12:17:15;15.40;99.90
51908;DHT22;39320;53.214;6.556;2022-10-22T12:19:54;15.40;99.90
51908;DHT22;39320;53.214;6.556;2022-10-22T12:22:31;15.40;99.90
51908;DHT22;39320;53.214;6.556;2022-10-22T12:25:04;15.40;99.90
51908;DHT22;39320;53.214;6.556;2022-10-22T12:27:38;15.40;99.90
51908;DHT22;39320;53.214;6.556;2022-10-22T12:32:57;15.50;99.90
51908;DHT22;39320;53.214;6.556;2022-10-22T12:35:26;15.50;99.90
51908;DHT22;39320;53.214;6.556;2022-10-22T12:38:12;15.70;99.90
51908;DHT22;39320;53.214;6.556;2022-10-22T12:40:39;15.50;99.90
51908;DHT22;39320;53.214;6.556;2022-10-22T12:43:26;15.50;99.90
51908;DHT22;39320;53.214;6.556;2022-10-22T12:45:53;15.50;99.90
51908;DHT22;39320;53.214;6.556;2022-10-22T12:48:29;15.50;99.90
51908;DHT22;39320;53.214;6.556;2022-10-22T12:50:59;15.50;99.90
51908;DHT22;39320;53.214;6.556;2022-10-22T12:53:31;15.50;99.90
51908;DHT22;39320;53.214;6.556;2022-10-22T12:56:01;15.50;99.90
51908;DHT22;39320;53.214;6.556;2022-10-22T12:58:38;15.50;99.90
51908;DHT22;39320;53.214;6.556;2022-10-22T13:01:04;15.40;99.90
51908;DHT22;39320;53.214;6.556;2022-10-22T13:03:47;15.40;99.90
51908;DHT22;39320;53.214;6.556;2022-10-22T13:08:44;15.40;99.90
51908;DHT22;39320;53.214;6.556;2022-10-22T13:11:19;15.50;99.90
51908;DHT22;39320;53.214;6.556;2022-10-22T13:13:45;15.60;99.90
51908;DHT22;39320;53.214;6.556;2022-10-22T13:16:22;15.60;99.90
51908;DHT22;39320;53.214;6.556;2022-10-22T13:18:52;15.70;99.90
51908;DHT22;39320;53.214;6.556;2022-10-22T13:23:55;15.80;99.90
51908;DHT22;39320;53.214;6.556;2022-10-22T13:26:21;16.00;99.90
51908;DHT22;39320;53.214;6.556;2022-10-22T13:28:53;16.10;99.90
51908;DHT22;39320;53.214;6.556;2022-10-22T13:31:30;16.20;99.90
51908;DHT22;39320;53.214;6.556;2022-10-22T13:34:01;16.20;99.90
51908;DHT22;39320;53.214;6.556;2022-10-22T13:36:27;16.20;99.90
51908;DHT22;39320;53.214;6.556;2022-10-22T13:38:53;16.30;99.90
51908;DHT22;39320;53.214;6.556;2022-10-22T13:41:22;16.30;99.90
51908;DHT22;39320;53.214;6.556;2022-10-22T13:43:49;16.30;99.90
51908;DHT22;39320;53.214;6.556;2022-10-22T13:46:15;16.30;99.90
51908;DHT22;39320;53.214;6.556;2022-10-22T13:48:42;16.20;99.90
51908;DHT22;39320;53.214;6.556;2022-10-22T13:51:28;16.20;99.90
51908;DHT22;39320;53.214;6.556;2022-10-22T13:53:56;16.20;99.90
51908;DHT22;39320;53.214;6.556;2022-10-22T13:56:22;16.20;99.90
51908;DHT22;39320;53.214;6.556;2022-10-22T13:58:48;16.10;99.90
51908;DHT22;39320;53.214;6.556;2022-10-22T14:01:25;16.10;99.90
51908;DHT22;39320;53.214;6.556;2022-10-22T14:03:53;16.10;99.90
51908;DHT22;39320;53.214;6.556;2022-10-22T14:06:20;16.10;99.90
51908;DHT22;39320;53.214;6.556;2022-10-22T14:08:59;16.00;99.90
51908;DHT22;39320;53.214;6.556;2022-10-22T14:11:26;16.00;99.90
51908;DHT22;39320;53.214;6.556;2022-10-22T14:13:53;16.00;99.90
51908;DHT22;39320;53.214;6.556;2022-10-22T14:16:26;15.90;99.90
51908;DHT22;39320;53.214;6.556;2022-10-22T14:18:53;15.90;99.90
51908;DHT22;39320;53.214;6.556;2022-10-22T14:21:19;15.90;99.90
51908;DHT22;39320;53.214;6.556;2022-10-22T14:23:47;16.00;99.90
51908;DHT22;39320;53.214;6.556;2022-10-22T14:26:24;16.00;99.90
51908;DHT22;39320;53.214;6.556;2022-10-22T14:28:52;16.20;99.90
51908;DHT22;39320;53.214;6.556;2022-10-22T14:31:18;16.30;99.90
51908;DHT22;39320;53.214;6.556;2022-10-22T14:33:44;16.30;99.90
51908;DHT22;39320;53.214;6.556;2022-10-22T14:36:13;16.40;99.90
51908;DHT22;39320;53.214;6.556;2022-10-22T14:38:44;16.60;99.90
51908;DHT22;39320;53.214;6.556;2022-10-22T14:41:17;16.50;99.90
51908;DHT22;39320;53.214;6.556;2022-10-22T14:43:44;16.60;99.90
51908;DHT22;39320;53.214;6.556;2022-10-22T14:46:11;16.70;99.90
51908;DHT22;39320;53.214;6.556;2022-10-22T14:48:37;16.70;99.90
51908;DHT22;39320;53.214;6.556;2022-10-22T14:51:03;16.70;99.90
51908;DHT22;39320;53.214;6.556;2022-10-22T14:53:28;16.70;99.90
51908;DHT22;39320;53.214;6.556;2022-10-22T14:55:55;16.70;99.90
51908;DHT22;39320;53.214;6.556;2022-10-22T14:58:24;16.70;99.90
51908;DHT22;39320;53.214;6.556;2022-10-22T15:00:50;16.80;99.90
51908;DHT22;39320;53.214;6.556;2022-10-22T15:03:16;16.80;99.90
51908;DHT22;39320;53.214;6.556;2022-10-22T15:05:43;16.80;99.90
51908;DHT22;39320;53.214;6.556;2022-10-22T15:08:13;16.80;99.90
51908;DHT22;39320;53.214;6.556;2022-10-22T15:10:39;16.80;99.90
51908;DHT22;39320;53.214;6.556;2022-10-22T15:13:05;16.80;99.90
51908;DHT22;39320;53.214;6.556;2022-10-22T15:15:30;16.90;99.90
51908;DHT22;39320;53.214;6.556;2022-10-22T15:17:56;17.00;99.90
51908;DHT22;39320;53.214;6.556;2022-10-22T15:20:22;17.20;99.90
51908;DHT22;39320;53.214;6.556;2022-10-22T15:22:47;17.30;99.90
51908;DHT22;39320;53.214;6.556;2022-10-22T15:25:13;17.50;99.90
51908;DHT22;39320;53.214;6.556;2022-10-22T15:27:42;17.40;99.90
51908;DHT22;39320;53.214;6.556;2022-10-22T15:30:08;17.30;99.90
51908;DHT22;39320;53.214;6.556;2022-10-22T15:32:33;17.30;99.90
51908;DHT22;39320;53.214;6.556;2022-10-22T15:35:00;17.30;99.90
51908;DHT22;39320;53.214;6.556;2022-10-22T15:37:26;17.30;99.90
51908;DHT22;39320;53.214;6.556;2022-10-22T15:39:51;17.10;99.90
51908;DHT22;39320;53.214;6.556;2022-10-22T15:42:17;17.00;99.90
51908;DHT22;39320;53.214;6.556;2022-10-22T15:44:43;16.80;99.90
51908;DHT22;39320;53.214;6.556;2022-10-22T15:47:09;16.60;99.90
51908;DHT22;39320;53.214;6.556;2022-10-22T15:49:37;16.50;99.90
51908;DHT22;39320;53.214;6.556;2022-10-22T15:52:04;16.40;99.90
51908;DHT22;39320;53.214;6.556;2022-10-22T15:54:31;16.30;99.90
51908;DHT22;39320;53.214;6.556;2022-10-22T15:56:58;16.20;99.90
51908;DHT22;39320;53.214;6.556;2022-10-22T15:59:24;16.10;99.90
51908;DHT22;39320;53.214;6.556;2022-10-22T16:01:50;16.10;99.90
51908;DHT22;39320;53.214;6.556;2022-10-22T16:04:16;16.00;99.90
51908;DHT22;39320;53.214;6.556;2022-10-22T16:06:50;15.90;99.90
51908;DHT22;39320;53.214;6.556;2022-10-22T16:09:21;15.90;99.90
51908;DHT22;39320;53.214;6.556;2022-10-22T16:11:48;15.80;99.90
51908;DHT22;39320;53.214;6.556;2022-10-22T16:14:15;15.70;99.90
51908;DHT22;39320;53.214;6.556;2022-10-22T16:16:44;15.70;99.90
51908;DHT22;39320;53.214;6.556;2022-10-22T16:19:11;15.60;99.90
51908;DHT22;39320;53.214;6.556;2022-10-22T16:21:38;15.60;99.90
51908;DHT22;39320;53.214;6.556;2022-10-22T16:24:05;15.60;99.90
51908;DHT22;39320;53.214;6.556;2022-10-22T16:26:31;15.50;99.90
51908;DHT22;39320;53.214;6.556;2022-10-22T16:28:57;15.40;99.90
51908;DHT22;39320;53.214;6.556;2022-10-22T16:31:23;15.50;99.90
51908;DHT22;39320;53.214;6.556;2022-10-22T16:33:49;15.40;99.90
51908;DHT22;39320;53.214;6.556;2022-10-22T16:36:17;15.40;99.90
51908;DHT22;39320;53.214;6.556;2022-10-22T16:38:44;15.40;99.90
51908;DHT22;39320;53.214;6.556;2022-10-22T16:41:29;15.40;99.90
51908;DHT22;39320;53.214;6.556;2022-10-22T16:44:00;15.30;99.90
51908;DHT22;39320;53.214;6.556;2022-10-22T16:46:28;15.30;99.90
51908;DHT22;39320;53.214;6.556;2022-10-22T16:48:54;15.30;99.90
51908;DHT22;39320;53.214;6.556;2022-10-22T16:51:22;15.20;99.90
51908;DHT22;39320;53.214;6.556;2022-10-22T16:53:50;15.20;99.90
51908;DHT22;39320;53.214;6.556;2022-10-22T16:56:17;15.20;99.90
51908;DHT22;39320;53.214;6.556;2022-10-22T16:58:45;15.20;99.90
51908;DHT22;39320;53.214;6.556;2022-10-22T17:01:11;15.20;99.90
51908;DHT22;39320;53.214;6.556;2022-10-22T17:03:37;15.20;99.90
51908;DHT22;39320;53.214;6.556;2022-10-22T17:06:03;15.10;99.90
51908;DHT22;39320;53.214;6.556;2022-10-22T17:08:40;15.10;99.90
51908;DHT22;39320;53.214;6.556;2022-10-22T17:11:10;15.00;99.90
51908;DHT22;39320;53.214;6.556;2022-10-22T17:13:38;15.00;99.90
51908;DHT22;39320;53.214;6.556;2022-10-22T17:16:07;15.00;99.90
51908;DHT22;39320;53.214;6.556;2022-10-22T17:18:34;15.00;99.90
51908;DHT22;39320;53.214;6.556;2022-10-22T17:21:00;15.00;99.90